F/V Le Natif 2 — FKVW — position and weather

sailwx.info

Track history (hours):
 
Tides and Currents Weather Stations Pressure Air Temp Water Temp Dewpoint Dewpoint Depression Visibility Wind Speed Wind Dir Waves Ship Positions

F/V Le Natif 2

Last reported at 2015-May-29 10:33 UTC. Time now 2015-May-29 20:30 UTC.
Position N 46°42' W 001°56'.

Length 16 m.

Type: Fishing. MMSI: 228131600.

Date/timePositionNaut miles runAvg speedWind from/ knotsBaromVisibWave heightAir tempDewpointWater temp
2015-May-29 10:33N 46°42' W 001°56'0 0.0
2015-May-29 09:29N 46°42' W 001°56'0 0.0
2015-May-29 08:32N 46°42' W 001°56'0 0.0
2015-May-29 07:33N 46°42' W 001°56'0 0.0
2015-May-29 06:33N 46°42' W 001°56'0 0.0
2015-May-29 05:33N 46°42' W 001°56'0 0.0
2015-May-29 04:14N 46°42' W 001°56'0 0.0
2015-May-29 03:15N 46°42' W 001°56'0 0.0
2015-May-29 02:24N 46°42' W 001°57'0 0.0
2015-May-29 01:33N 46°42' W 001°57'5 5.0
2015-May-29 00:33N 46°42' W 002°04'6 6.3
2015-May-28 23:33N 46°44' W 002°13'103 7.4
2015-May-28 09:32N 47°11' W 004°39'14 4.3
2015-May-28 06:12N 47°12' W 004°60'2 2.8
2015-May-28 05:25N 47°10' W 005°00'2 2.4
2015-May-28 04:26N 47°11' W 005°03'3 3.4
2015-May-28 03:33N 47°14' W 005°03'3 2.9
2015-May-28 02:32N 47°17' W 005°02'3 2.5
2015-May-28 01:31N 47°14' W 005°02'2 1.6
2015-May-28 00:16N 47°13' W 005°05'2 3.1
2015-May-27 23:30N 47°15' W 005°07'6 3.1
2015-May-27 21:31N 47°18' W 005°15'1 0.9
2015-May-27 20:17N 47°18' W 005°13'2 2.3
2015-May-27 19:30N 47°19' W 005°11'6 1.4
2015-May-27 15:22N 47°13' W 005°09'2 0.3
2015-May-27 08:22N 47°15' W 005°10'7 1.4
2015-May-27 03:30N 47°16' W 005°00'3 2.8
2015-May-27 02:25N 47°13' W 005°01'3 2.8
2015-May-27 01:17N 47°16' W 005°02'1 0.8
2015-May-27 00:04N 47°17' W 005°01'10 1.2
2015-May-26 16:09N 47°26' W 005°07'3 3.1
2015-May-26 15:16N 47°23' W 005°06'8 2.1
2015-May-26 11:22N 47°18' W 004°56'3 0.3
2015-May-26 03:23N 47°18' W 004°60'2 3.0
2015-May-26 02:33N 47°15' W 005°01'2 1.0
2015-May-26 00:22N 47°17' W 005°02'2 2.7
2015-May-25 23:29N 47°15' W 005°02'3 1.6
2015-May-25 21:31N 47°18' W 005°03'46 3.4
2015-May-25 08:06N 46°46' W 004°15'4 8.2
2015-May-25 07:33N 46°44' W 004°09'8 8.0
2015-May-25 06:31N 46°42' W 003°57'8 8.0
2015-May-25 05:32N 46°39' W 003°46'61 8.4
2015-May-24 22:17N 46°40' W 002°17'6 8.6
2015-May-24 21:33N 46°41' W 002°08'7 7.0
2015-May-24 20:33N 46°41' W 001°58'  
2015-May-22 08:31N 46°42' W 001°56'0 0.0
2015-May-22 07:29N 46°42' W 001°56'0 0.0
2015-May-22 06:30N 46°42' W 001°56'0 0.0
2015-May-22 05:31N 46°42' W 001°56'0 0.0
2015-May-22 04:31N 46°42' W 001°56'0 0.0
2015-May-22 03:33N 46°42' W 001°56'0 0.0
2015-May-22 02:33N 46°42' W 001°56'8 7.6
2015-May-22 01:33N 46°35' W 002°01'9 8.9
2015-May-22 00:33N 46°26' W 002°06'9 8.8
2015-May-21 23:33N 46°18' W 002°10'5 3.9
2015-May-21 22:12N 46°13' W 002°10'2 3.1
2015-May-21 21:31N 46°11' W 002°09'7 0.3
2015-May-20 22:25N 46°09' W 001°59'3 3.1
2015-May-20 21:18N 46°07' W 001°55'11 1.3
2015-May-20 13:24N 45°60' W 001°44'10 0.4
2015-May-19 11:07N 45°53' W 001°34'  
Track history (hours):
 
Tides and Currents Weather Stations Pressure Air Temp Water Temp Dewpoint Dewpoint Depression Visibility Wind Speed Wind Dir Waves Ship Positions

F/V Le Natif 2

Last reported at 2015-May-29 10:33 UTC. Time now 2015-May-29 20:30 UTC.
Position N 46°42' W 001°56'.

Length 16 m.

Type: Fishing. MMSI: 228131600.

Date/timePositionNaut miles runAvg speedWind from/ knotsBaromVisibWave heightAir tempDewpointWater temp
2015-May-29 10:33N 46°42' W 001°56'0 0.0
2015-May-29 09:29N 46°42' W 001°56'0 0.0
2015-May-29 08:32N 46°42' W 001°56'0 0.0
2015-May-29 07:33N 46°42' W 001°56'0 0.0
2015-May-29 06:33N 46°42' W 001°56'0 0.0
2015-May-29 05:33N 46°42' W 001°56'0 0.0
2015-May-29 04:14N 46°42' W 001°56'0 0.0
2015-May-29 03:15N 46°42' W 001°56'0 0.0
2015-May-29 02:24N 46°42' W 001°57'0 0.0
2015-May-29 01:33N 46°42' W 001°57'5 5.0
2015-May-29 00:33N 46°42' W 002°04'6 6.3
2015-May-28 23:33N 46°44' W 002°13'103 7.4
2015-May-28 09:32N 47°11' W 004°39'14 4.3
2015-May-28 06:12N 47°12' W 004°60'2 2.8
2015-May-28 05:25N 47°10' W 005°00'2 2.4
2015-May-28 04:26N 47°11' W 005°03'3 3.4
2015-May-28 03:33N 47°14' W 005°03'3 2.9
2015-May-28 02:32N 47°17' W 005°02'3 2.5
2015-May-28 01:31N 47°14' W 005°02'2 1.6
2015-May-28 00:16N 47°13' W 005°05'2 3.1
2015-May-27 23:30N 47°15' W 005°07'6 3.1
2015-May-27 21:31N 47°18' W 005°15'1 0.9
2015-May-27 20:17N 47°18' W 005°13'2 2.3
2015-May-27 19:30N 47°19' W 005°11'6 1.4
2015-May-27 15:22N 47°13' W 005°09'2 0.3
2015-May-27 08:22N 47°15' W 005°10'7 1.4
2015-May-27 03:30N 47°16' W 005°00'3 2.8
2015-May-27 02:25N 47°13' W 005°01'3 2.8
2015-May-27 01:17N 47°16' W 005°02'1 0.8
2015-May-27 00:04N 47°17' W 005°01'10 1.2
2015-May-26 16:09N 47°26' W 005°07'3 3.1
2015-May-26 15:16N 47°23' W 005°06'8 2.1
2015-May-26 11:22N 47°18' W 004°56'3 0.3
2015-May-26 03:23N 47°18' W 004°60'2 3.0
2015-May-26 02:33N 47°15' W 005°01'2 1.0
2015-May-26 00:22N 47°17' W 005°02'2 2.7
2015-May-25 23:29N 47°15' W 005°02'3 1.6
2015-May-25 21:31N 47°18' W 005°03'46 3.4
2015-May-25 08:06N 46°46' W 004°15'4 8.2
2015-May-25 07:33N 46°44' W 004°09'8 8.0
2015-May-25 06:31N 46°42' W 003°57'8 8.0
2015-May-25 05:32N 46°39' W 003°46'61 8.4
2015-May-24 22:17N 46°40' W 002°17'6 8.6
2015-May-24 21:33N 46°41' W 002°08'7 7.0
2015-May-24 20:33N 46°41' W 001°58'  
2015-May-22 08:31N 46°42' W 001°56'0 0.0
2015-May-22 07:29N 46°42' W 001°56'0 0.0
2015-May-22 06:30N 46°42' W 001°56'0 0.0
2015-May-22 05:31N 46°42' W 001°56'0 0.0
2015-May-22 04:31N 46°42' W 001°56'0 0.0
2015-May-22 03:33N 46°42' W 001°56'0 0.0
2015-May-22 02:33N 46°42' W 001°56'8 7.6
2015-May-22 01:33N 46°35' W 002°01'9 8.9
2015-May-22 00:33N 46°26' W 002°06'9 8.8
2015-May-21 23:33N 46°18' W 002°10'5 3.9
2015-May-21 22:12N 46°13' W 002°10'2 3.1
2015-May-21 21:31N 46°11' W 002°09'7 0.3
2015-May-20 22:25N 46°09' W 001°59'3 3.1
2015-May-20 21:18N 46°07' W 001°55'11 1.3
2015-May-20 13:24N 45°60' W 001°44'10 0.4
2015-May-19 11:07N 45°53' W 001°34'  

Dump ship's entire track history